sensor_id;sensor_type;location;lat;lon;timestamp;pressure;altitude;pressure_sealevel;temperature;humidity
43436;BME280;36399;51.444;-2.018;2023-10-31T00:02:19;99079.31;;;8.26;100.00
43436;BME280;36399;51.444;-2.018;2023-10-31T00:04:45;99084.59;;;8.38;100.00
43436;BME280;36399;51.444;-2.018;2023-10-31T00:07:11;99074.13;;;8.44;100.00
43436;BME280;36399;51.444;-2.018;2023-10-31T00:09:37;99075.88;;;8.44;100.00
43436;BME280;36399;51.444;-2.018;2023-10-31T00:12:05;99070.66;;;8.48;100.00
43436;BME280;36399;51.444;-2.018;2023-10-31T00:14:31;99075.88;;;8.41;100.00
43436;BME280;36399;51.444;-2.018;2023-10-31T00:17:00;99074.13;;;8.55;100.00
43436;BME280;36399;51.444;-2.018;2023-10-31T00:19:26;99071.50;;;8.58;100.00
43436;BME280;36399;51.444;-2.018;2023-10-31T00:21:52;99071.47;;;8.73;100.00
43436;BME280;36399;51.444;-2.018;2023-10-31T00:24:18;99074.94;;;8.78;100.00
43436;BME280;36399;51.444;-2.018;2023-10-31T00:26:44;99071.44;;;8.79;100.00
43436;BME280;36399;51.444;-2.018;2023-10-31T00:29:10;99078.41;;;8.83;100.00
43436;BME280;36399;51.444;-2.018;2023-10-31T00:31:36;99074.94;;;8.88;100.00
43436;BME280;36399;51.444;-2.018;2023-10-31T00:34:02;99074.06;;;8.92;100.00
43436;BME280;36399;51.444;-2.018;2023-10-31T00:36:28;99065.34;;;8.88;100.00
43436;BME280;36399;51.444;-2.018;2023-10-31T00:38:54;99073.13;;;9.08;100.00
43436;BME280;36399;51.444;-2.018;2023-10-31T00:41:19;99063.56;;;9.01;100.00
43436;BME280;36399;51.444;-2.018;2023-10-31T00:43:45;99067.03;;;9.03;100.00
43436;BME280;36399;51.444;-2.018;2023-10-31T00:46:12;99062.69;;;9.02;100.00
43436;BME280;36399;51.444;-2.018;2023-10-31T00:48:38;99069.69;;;8.98;100.00
43436;BME280;36399;51.444;-2.018;2023-10-31T00:51:04;99067.03;;;9.07;100.00
43436;BME280;36399;51.444;-2.018;2023-10-31T00:53:30;99064.41;;;9.09;100.00
43436;BME280;36399;51.444;-2.018;2023-10-31T00:55:56;99064.44;;;9.03;100.00
43436;BME280;36399;51.444;-2.018;2023-10-31T00:58:23;99060.97;;;8.95;100.00
43436;BME280;36399;51.444;-2.018;2023-10-31T01:00:49;99054.88;;;8.93;100.00
43436;BME280;36399;51.444;-2.018;2023-10-31T01:03:15;99061.84;;;8.97;100.00
43436;BME280;36399;51.444;-2.018;2023-10-31T01:05:43;99053.13;;;8.87;100.00
43436;BME280;36399;51.444;-2.018;2023-10-31T01:08:09;99054.88;;;8.91;100.00
43436;BME280;36399;51.444;-2.018;2023-10-31T01:10:35;99054.00;;;8.88;100.00
43436;BME280;36399;51.444;-2.018;2023-10-31T01:13:01;99047.03;;;8.90;100.00
43436;BME280;36399;51.444;-2.018;2023-10-31T01:15:27;99049.66;;;8.85;100.00
43436;BME280;36399;51.444;-2.018;2023-10-31T01:17:53;99050.50;;;8.79;100.00
43436;BME280;36399;51.444;-2.018;2023-10-31T01:20:19;99048.78;;;8.84;100.00
43436;BME280;36399;51.444;-2.018;2023-10-31T01:22:45;99050.50;;;8.82;100.00
43436;BME280;36399;51.444;-2.018;2023-10-31T01:25:11;99043.53;;;8.81;100.00
43436;BME280;36399;51.444;-2.018;2023-10-31T01:27:37;99040.91;;;8.83;100.00
43436;BME280;36399;51.444;-2.018;2023-10-31T01:30:03;99037.44;;;8.79;100.00
43436;BME280;36399;51.444;-2.018;2023-10-31T01:32:29;99041.81;;;8.70;100.00
43436;BME280;36399;51.444;-2.018;2023-10-31T01:34:55;99042.69;;;8.70;100.00
43436;BME280;36399;51.444;-2.018;2023-10-31T01:37:24;99046.19;;;8.65;100.00
43436;BME280;36399;51.444;-2.018;2023-10-31T01:39:50;99046.19;;;8.68;100.00
43436;BME280;36399;51.444;-2.018;2023-10-31T01:42:16;99050.56;;;8.63;100.00
43436;BME280;36399;51.444;-2.018;2023-10-31T01:44:43;99047.94;;;8.66;100.00
43436;BME280;36399;51.444;-2.018;2023-10-31T01:47:09;99047.09;;;8.59;100.00
43436;BME280;36399;51.444;-2.018;2023-10-31T01:49:36;99051.44;;;8.59;100.00
43436;BME280;36399;51.444;-2.018;2023-10-31T01:52:06;99049.69;;;8.59;100.00
43436;BME280;36399;51.444;-2.018;2023-10-31T01:54:35;99049.72;;;8.53;100.00
43436;BME280;36399;51.444;-2.018;2023-10-31T01:57:02;99048.81;;;8.65;100.00
43436;BME280;36399;51.444;-2.018;2023-10-31T01:59:30;99053.16;;;8.67;100.00
43436;BME280;36399;51.444;-2.018;2023-10-31T02:01:57;99058.41;;;8.60;100.00
43436;BME280;36399;51.444;-2.018;2023-10-31T02:04:33;99049.69;;;8.68;100.00
43436;BME280;36399;51.444;-2.018;2023-10-31T02:06:59;99054.91;;;8.73;100.00
43436;BME280;36399;51.444;-2.018;2023-10-31T02:09:25;99047.06;;;8.71;100.00
43436;BME280;36399;51.444;-2.018;2023-10-31T02:11:53;99049.63;;;8.82;100.00
43436;BME280;36399;51.444;-2.018;2023-10-31T02:14:19;99055.75;;;8.89;100.00
43436;BME280;36399;51.444;-2.018;2023-10-31T02:16:45;99054.00;;;8.91;100.00
43436;BME280;36399;51.444;-2.018;2023-10-31T02:19:12;99057.50;;;8.87;100.00
43436;BME280;36399;51.444;-2.018;2023-10-31T02:21:39;99053.09;;;8.96;100.00
43436;BME280;36399;51.444;-2.018;2023-10-31T02:24:06;99047.91;;;8.90;100.00
43436;BME280;36399;51.444;-2.018;2023-10-31T02:26:34;99048.75;;;8.97;100.00
43436;BME280;36399;51.444;-2.018;2023-10-31T02:29:01;99045.28;;;8.92;100.00
43436;BME280;36399;51.444;-2.018;2023-10-31T02:31:27;99045.28;;;8.92;100.00
43436;BME280;36399;51.444;-2.018;2023-10-31T02:33:53;99046.16;;;8.86;100.00
43436;BME280;36399;51.444;-2.018;2023-10-31T02:36:19;99040.03;;;8.92;100.00
43436;BME280;36399;51.444;-2.018;2023-10-31T02:38:46;99045.28;;;8.89;100.00
43436;BME280;36399;51.444;-2.018;2023-10-31T02:41:16;99037.44;;;8.89;100.00
43436;BME280;36399;51.444;-2.018;2023-10-31T02:43:42;99044.41;;;8.93;100.00
43436;BME280;36399;51.444;-2.018;2023-10-31T02:46:08;99045.28;;;8.92;100.00
43436;BME280;36399;51.444;-2.018;2023-10-31T02:48:36;99048.75;;;8.94;100.00
43436;BME280;36399;51.444;-2.018;2023-10-31T02:51:07;99043.53;;;8.91;100.00
43436;BME280;36399;51.444;-2.018;2023-10-31T02:53:34;99037.44;;;8.87;100.00
43436;BME280;36399;51.444;-2.018;2023-10-31T02:56:00;99044.41;;;8.87;100.00
43436;BME280;36399;51.444;-2.018;2023-10-31T02:58:29;99036.56;;;8.90;100.00
43436;BME280;36399;51.444;-2.018;2023-10-31T03:00:55;99048.75;;;8.97;100.00
43436;BME280;36399;51.444;-2.018;2023-10-31T03:03:21;99045.28;;;8.89;100.00
43436;BME280;36399;51.444;-2.018;2023-10-31T03:05:47;99047.91;;;8.90;100.00
43436;BME280;36399;51.444;-2.018;2023-10-31T03:08:13;99048.72;;;9.00;100.00
43436;BME280;36399;51.444;-2.018;2023-10-31T03:10:41;99040.91;;;8.97;100.00
43436;BME280;36399;51.444;-2.018;2023-10-31T03:13:06;99038.31;;;8.91;100.00
43436;BME280;36399;51.444;-2.018;2023-10-31T03:15:32;99036.56;;;8.88;100.00
43436;BME280;36399;51.444;-2.018;2023-10-31T03:17:58;99039.19;;;8.76;100.00
43436;BME280;36399;51.444;-2.018;2023-10-31T03:20:24;99034.88;;;8.64;100.00
43436;BME280;36399;51.444;-2.018;2023-10-31T03:22:50;99039.25;;;8.53;100.00
43436;BME280;36399;51.444;-2.018;2023-10-31T03:25:16;99040.13;;;8.52;100.00
43436;BME280;36399;51.444;-2.018;2023-10-31T03:27:42;99046.22;;;8.51;100.00
43436;BME280;36399;51.444;-2.018;2023-10-31T03:30:08;99046.22;;;8.54;100.00
43436;BME280;36399;51.444;-2.018;2023-10-31T03:32:35;99044.50;;;8.44;100.00
43436;BME280;36399;51.444;-2.018;2023-10-31T03:35:01;99043.63;;;8.45;100.00
43436;BME280;36399;51.444;-2.018;2023-10-31T03:37:27;99051.47;;;8.46;100.00
43436;BME280;36399;51.444;-2.018;2023-10-31T03:39:53;99054.97;;;8.44;100.00
43436;BME280;36399;51.444;-2.018;2023-10-31T03:42:19;99053.22;;;8.35;100.00
43436;BME280;36399;51.444;-2.018;2023-10-31T03:44:44;99059.31;;;8.33;100.00
43436;BME280;36399;51.444;-2.018;2023-10-31T03:47:13;99062.81;;;8.36;100.00
43436;BME280;36399;51.444;-2.018;2023-10-31T03:49:39;99062.81;;;8.41;100.00
43436;BME280;36399;51.444;-2.018;2023-10-31T03:52:05;99061.94;;;8.42;100.00
43436;BME280;36399;51.444;-2.018;2023-10-31T03:54:31;99068.03;;;8.44;100.00
43436;BME280;36399;51.444;-2.018;2023-10-31T03:56:57;99073.25;;;8.47;100.00
43436;BME280;36399;51.444;-2.018;2023-10-31T03:59:23;99075.88;;;8.56;100.00
43436;BME280;36399;51.444;-2.018;2023-10-31T04:01:49;99079.31;;;8.72;100.00
43436;BME280;36399;51.444;-2.018;2023-10-31T04:04:15;99076.69;;;8.76;100.00
43436;BME280;36399;51.444;-2.018;2023-10-31T04:06:41;99085.41;;;8.80;100.00
43436;BME280;36399;51.444;-2.018;2023-10-31T04:09:10;99083.69;;;8.73;100.00
43436;BME280;36399;51.444;-2.018;2023-10-31T04:11:37;99081.94;;;8.64;100.00
43436;BME280;36399;51.444;-2.018;2023-10-31T04:14:03;99091.53;;;8.67;100.00
43436;BME280;36399;51.444;-2.018;2023-10-31T04:16:30;99099.41;;;8.64;100.00
43436;BME280;36399;51.444;-2.018;2023-10-31T04:18:55;99107.25;;;8.67;100.00
43436;BME280;36399;51.444;-2.018;2023-10-31T04:21:21;99103.75;;;8.72;100.00
43436;BME280;36399;51.444;-2.018;2023-10-31T04:23:47;99107.22;;;8.68;100.00
43436;BME280;36399;51.444;-2.018;2023-10-31T04:26:13;99118.59;;;8.58;100.00
43436;BME280;36399;51.444;-2.018;2023-10-31T04:28:40;99115.97;;;8.49;100.00
43436;BME280;36399;51.444;-2.018;2023-10-31T04:31:05;99129.94;;;8.40;100.00
43436;BME280;36399;51.444;-2.018;2023-10-31T04:33:31;99129.94;;;8.37;100.00
43436;BME280;36399;51.444;-2.018;2023-10-31T04:35:57;99136.03;;;8.48;100.00
43436;BME280;36399;51.444;-2.018;2023-10-31T04:38:23;99141.25;;;8.50;100.00
43436;BME280;36399;51.444;-2.018;2023-10-31T04:40:49;99148.22;;;8.60;100.00
43436;BME280;36399;51.444;-2.018;2023-10-31T04:43:15;99145.59;;;8.74;100.00
43436;BME280;36399;51.444;-2.018;2023-10-31T04:45:41;99146.47;;;8.74;100.00
43436;BME280;36399;51.444;-2.018;2023-10-31T04:48:07;99144.72;;;8.79;100.00
43436;BME280;36399;51.444;-2.018;2023-10-31T04:50:33;99149.97;;;8.76;100.00
43436;BME280;36399;51.444;-2.018;2023-10-31T04:52:59;99141.25;;;8.67;100.00
43436;BME280;36399;51.444;-2.018;2023-10-31T04:55:25;99146.50;;;8.54;100.00
43436;BME280;36399;51.444;-2.018;2023-10-31T04:57:54;99136.03;;;8.53;100.00
43436;BME280;36399;51.444;-2.018;2023-10-31T05:00:20;99138.66;;;8.47;100.00
43436;BME280;36399;51.444;-2.018;2023-10-31T05:02:46;99145.63;;;8.48;100.00
43436;BME280;36399;51.444;-2.018;2023-10-31T05:05:12;99147.38;;;8.44;100.00
43436;BME280;36399;51.444;-2.018;2023-10-31T05:07:38;99149.97;;;8.49;100.00
43436;BME280;36399;51.444;-2.018;2023-10-31T05:10:04;99149.09;;;8.44;100.00
43436;BME280;36399;51.444;-2.018;2023-10-31T05:12:30;99149.09;;;8.39;100.00
43436;BME280;36399;51.444;-2.018;2023-10-31T05:14:56;99155.22;;;8.35;100.00
43436;BME280;36399;51.444;-2.018;2023-10-31T05:17:22;99160.38;;;8.31;100.00
43436;BME280;36399;51.444;-2.018;2023-10-31T05:19:48;99151.66;;;8.22;100.00
43436;BME280;36399;51.444;-2.018;2023-10-31T05:22:14;99153.38;;;8.08;100.00
43436;BME280;36399;51.444;-2.018;2023-10-31T05:24:42;99147.28;;;8.06;100.00
43436;BME280;36399;51.444;-2.018;2023-10-31T05:27:09;99155.13;;;8.15;100.00
43436;BME280;36399;51.444;-2.018;2023-10-31T05:29:35;99148.16;;;8.07;100.00
43436;BME280;36399;51.444;-2.018;2023-10-31T05:32:01;99142.91;;;8.05;100.00
43436;BME280;36399;51.444;-2.018;2023-10-31T05:34:27;99148.16;;;8.05;100.00
43436;BME280;36399;51.444;-2.018;2023-10-31T05:36:53;99152.50;;;8.02;100.00
43436;BME280;36399;51.444;-2.018;2023-10-31T05:39:19;99157.72;;;7.93;100.00
43436;BME280;36399;51.444;-2.018;2023-10-31T05:41:45;99151.59;;;7.89;100.00
43436;BME280;36399;51.444;-2.018;2023-10-31T05:44:11;99149.84;;;7.88;100.00
43436;BME280;36399;51.444;-2.018;2023-10-31T05:46:40;99155.09;;;7.94;100.00
43436;BME280;36399;51.444;-2.018;2023-10-31T05:49:07;99155.97;;;7.90;100.00
43436;BME280;36399;51.444;-2.018;2023-10-31T05:51:33;99155.94;;;7.84;100.00
43436;BME280;36399;51.444;-2.018;2023-10-31T05:54:01;99160.31;;;7.85;100.00
43436;BME280;36399;51.444;-2.018;2023-10-31T05:56:27;99154.13;;;7.72;100.00
43436;BME280;36399;51.444;-2.018;2023-10-31T05:58:53;99153.28;;;7.75;100.00
43436;BME280;36399;51.444;-2.018;2023-10-31T06:01:19;99160.28;;;7.82;100.00
43436;BME280;36399;51.444;-2.018;2023-10-31T06:03:45;99153.34;;;7.84;100.00
43436;BME280;36399;51.444;-2.018;2023-10-31T06:06:12;99159.44;;;7.86;100.00
43436;BME280;36399;51.444;-2.018;2023-10-31T06:08:39;99164.66;;;7.86;100.00
43436;BME280;36399;51.444;-2.018;2023-10-31T06:11:06;99164.66;;;7.81;100.00
43436;BME280;36399;51.444;-2.018;2023-10-31T06:13:33;99169.03;;;7.90;100.00
43436;BME280;36399;51.444;-2.018;2023-10-31T06:16:00;99173.38;;;7.91;100.00
43436;BME280;36399;51.444;-2.018;2023-10-31T06:18:30;99179.47;;;7.87;100.00
43436;BME280;36399;51.444;-2.018;2023-10-31T06:20:56;99184.69;;;7.81;100.00
43436;BME280;36399;51.444;-2.018;2023-10-31T06:23:24;99191.66;;;7.82;100.00
43436;BME280;36399;51.444;-2.018;2023-10-31T06:25:55;99185.50;;;7.75;100.00
43436;BME280;36399;51.444;-2.018;2023-10-31T06:28:23;99190.72;;;7.72;100.00
43436;BME280;36399;51.444;-2.018;2023-10-31T06:30:48;99188.09;;;7.68;100.00
43436;BME280;36399;51.444;-2.018;2023-10-31T06:33:18;99195.03;;;7.63;100.00
43436;BME280;36399;51.444;-2.018;2023-10-31T06:35:43;99200.25;;;7.59;100.00
43436;BME280;36399;51.444;-2.018;2023-10-31T06:38:09;99207.19;;;7.53;100.00
43436;BME280;36399;51.444;-2.018;2023-10-31T06:40:36;99214.09;;;7.43;100.00
43436;BME280;36399;51.444;-2.018;2023-10-31T06:43:02;99223.72;;;7.50;100.00
43436;BME280;36399;51.444;-2.018;2023-10-31T06:45:28;99229.00;;;7.67;100.00
43436;BME280;36399;51.444;-2.018;2023-10-31T06:47:54;99237.75;;;7.74;100.00
43436;BME280;36399;51.444;-2.018;2023-10-31T06:50:20;99233.38;;;7.73;100.00
43436;BME280;36399;51.444;-2.018;2023-10-31T06:52:46;99238.63;;;7.76;100.00
43436;BME280;36399;51.444;-2.018;2023-10-31T06:55:11;99252.53;;;7.75;100.00
43436;BME280;36399;51.444;-2.018;2023-10-31T06:57:38;99256.91;;;7.76;100.00
43436;BME280;36399;51.444;-2.018;2023-10-31T07:00:05;99250.81;;;7.77;100.00
43436;BME280;36399;51.444;-2.018;2023-10-31T07:02:34;99245.56;;;7.71;100.00
43436;BME280;36399;51.444;-2.018;2023-10-31T07:05:01;99243.81;;;7.70;100.00
43436;BME280;36399;51.444;-2.018;2023-10-31T07:07:27;99243.88;;;7.80;100.00
43436;BME280;36399;51.444;-2.018;2023-10-31T07:09:56;99244.72;;;7.78;100.00
43436;BME280;36399;51.444;-2.018;2023-10-31T07:12:22;99247.41;;;7.90;100.00
43436;BME280;36399;51.444;-2.018;2023-10-31T07:14:48;99246.56;;;7.93;100.00
43436;BME280;36399;51.444;-2.018;2023-10-31T07:17:14;99257.00;;;7.94;100.00
43436;BME280;36399;51.444;-2.018;2023-10-31T07:19:40;99259.59;;;7.88;100.00
43436;BME280;36399;51.444;-2.018;2023-10-31T07:22:09;99261.34;;;7.89;100.00
43436;BME280;36399;51.444;-2.018;2023-10-31T07:24:34;99270.03;;;7.85;100.00
43436;BME280;36399;51.444;-2.018;2023-10-31T07:27:02;99282.25;;;7.87;100.00
43436;BME280;36399;51.444;-2.018;2023-10-31T07:29:28;99289.28;;;8.02;100.00
43436;BME280;36399;51.444;-2.018;2023-10-31T07:31:57;99282.34;;;8.13;100.00
43436;BME280;36399;51.444;-2.018;2023-10-31T07:34:22;99294.56;;;8.25;100.00
43436;BME280;36399;51.444;-2.018;2023-10-31T07:36:48;99300.78;;;8.35;100.00
43436;BME280;36399;51.444;-2.018;2023-10-31T07:39:14;99304.28;;;8.52;100.00
43436;BME280;36399;51.444;-2.018;2023-10-31T07:41:40;99306.94;;;8.67;100.00
43436;BME280;36399;51.444;-2.018;2023-10-31T07:44:06;99307.81;;;8.72;100.00
43436;BME280;36399;51.444;-2.018;2023-10-31T07:46:32;99310.44;;;8.78;100.00
43436;BME280;36399;51.444;-2.018;2023-10-31T07:48:58;99319.22;;;8.93;100.00
43436;BME280;36399;51.444;-2.018;2023-10-31T07:51:24;99317.47;;;8.92;100.00
43436;BME280;36399;51.444;-2.018;2023-10-31T07:53:50;99319.22;;;8.93;100.00
43436;BME280;36399;51.444;-2.018;2023-10-31T07:56:17;99319.22;;;8.99;100.00
43436;BME280;36399;51.444;-2.018;2023-10-31T07:58:43;99315.72;;;8.95;100.00
43436;BME280;36399;51.444;-2.018;2023-10-31T08:01:09;99320.97;;;9.12;100.00
43436;BME280;36399;51.444;-2.018;2023-10-31T08:03:36;99321.81;;;9.22;100.00
43436;BME280;36399;51.444;-2.018;2023-10-31T08:06:05;99317.47;;;9.34;100.00
43436;BME280;36399;51.444;-2.018;2023-10-31T08:08:31;99318.34;;;9.38;100.00
43436;BME280;36399;51.444;-2.018;2023-10-31T08:10:57;99325.34;;;9.42;100.00
43436;BME280;36399;51.444;-2.018;2023-10-31T08:13:24;99325.31;;;9.54;100.00
43436;BME280;36399;51.444;-2.018;2023-10-31T08:15:50;99335.78;;;9.60;100.00
43436;BME280;36399;51.444;-2.018;2023-10-31T08:18:16;99331.41;;;9.70;100.00
43436;BME280;36399;51.444;-2.018;2023-10-31T08:20:42;99331.38;;;9.80;100.00
43436;BME280;36399;51.444;-2.018;2023-10-31T08:23:11;99327.00;;;9.79;100.00
43436;BME280;36399;51.444;-2.018;2023-10-31T08:25:37;99333.97;;;9.87;100.00
43436;BME280;36399;51.444;-2.018;2023-10-31T08:28:04;99324.38;;;9.84;100.00
43436;BME280;36399;51.444;-2.018;2023-10-31T08:30:29;99322.66;;;9.78;100.00
43436;BME280;36399;51.444;-2.018;2023-10-31T08:32:56;99327.00;;;9.79;100.00
43436;BME280;36399;51.444;-2.018;2023-10-31T08:35:22;99319.16;;;9.70;100.00
43436;BME280;36399;51.444;-2.018;2023-10-31T08:37:47;99325.28;;;9.71;100.00
43436;BME280;36399;51.444;-2.018;2023-10-31T08:40:13;99320.91;;;9.71;100.00
43436;BME280;36399;51.444;-2.018;2023-10-31T08:42:39;99321.75;;;9.92;100.00
43436;BME280;36399;51.444;-2.018;2023-10-31T08:45:07;99329.63;;;9.96;100.00
43436;BME280;36399;51.444;-2.018;2023-10-31T08:47:33;99324.38;;;9.90;100.00
43436;BME280;36399;51.444;-2.018;2023-10-31T08:49:59;99329.56;;;10.21;100.00
43436;BME280;36399;51.444;-2.018;2023-10-31T08:52:25;99329.53;;;10.18;100.00
43436;BME280;36399;51.444;-2.018;2023-10-31T08:54:51;99336.44;;;10.52;100.00
43436;BME280;36399;51.444;-2.018;2023-10-31T08:57:17;99334.66;;;10.57;100.00
43436;BME280;36399;51.444;-2.018;2023-10-31T08:59:43;99331.94;;;10.71;100.00
43436;BME280;36399;51.444;-2.018;2023-10-31T09:02:09;99337.19;;;10.72;100.00
43436;BME280;36399;51.444;-2.018;2023-10-31T09:04:35;99327.53;;;10.78;100.00
43436;BME280;36399;51.444;-2.018;2023-10-31T09:07:01;99325.78;;;10.77;100.00
43436;BME280;36399;51.444;-2.018;2023-10-31T09:09:27;99320.47;;;10.86;100.00
43436;BME280;36399;51.444;-2.018;2023-10-31T09:11:53;99312.63;;;10.83;100.00
43436;BME280;36399;51.444;-2.018;2023-10-31T09:14:19;99310.81;;;10.91;100.00
43436;BME280;36399;51.444;-2.018;2023-10-31T09:16:45;99299.56;;;10.73;100.00
43436;BME280;36399;51.444;-2.018;2023-10-31T09:19:11;99285.44;;;10.93;100.00
43436;BME280;36399;51.444;-2.018;2023-10-31T09:21:37;99280.00;;;11.14;100.00
43436;BME280;36399;51.444;-2.018;2023-10-31T09:24:03;99276.53;;;11.09;100.00
43436;BME280;36399;51.444;-2.018;2023-10-31T09:26:29;99264.66;;;11.62;100.00
43436;BME280;36399;51.444;-2.018;2023-10-31T09:28:55;99266.06;;;11.98;100.00
43436;BME280;36399;51.444;-2.018;2023-10-31T09:31:22;99258.97;;;12.05;100.00
43436;BME280;36399;51.444;-2.018;2023-10-31T09:33:48;99254.53;;;12.10;100.00
43436;BME280;36399;51.444;-2.018;2023-10-31T09:36:14;99244.72;;;12.21;100.00
43436;BME280;36399;51.444;-2.018;2023-10-31T09:38:40;99239.44;;;12.22;100.00
43436;BME280;36399;51.444;-2.018;2023-10-31T09:41:07;99237.81;;;12.14;100.00
43436;BME280;36399;51.444;-2.018;2023-10-31T09:43:33;99236.78;;;12.24;100.00
43436;BME280;36399;51.444;-2.018;2023-10-31T09:45:59;99241.53;;;11.97;100.00
43436;BME280;36399;51.444;-2.018;2023-10-31T09:48:27;99245.91;;;11.94;100.00
43436;BME280;36399;51.444;-2.018;2023-10-31T09:50:54;99234.50;;;11.98;100.00
43436;BME280;36399;51.444;-2.018;2023-10-31T09:53:21;99235.38;;;11.95;100.00
43436;BME280;36399;51.444;-2.018;2023-10-31T09:55:47;99236.16;;;12.05;100.00
43436;BME280;36399;51.444;-2.018;2023-10-31T09:58:14;99229.38;;;11.84;100.00
43436;BME280;36399;51.444;-2.018;2023-10-31T10:00:40;99229.44;;;12.47;100.00
43436;BME280;36399;51.444;-2.018;2023-10-31T10:03:09;99222.34;;;13.08;100.00
43436;BME280;36399;51.444;-2.018;2023-10-31T10:05:36;99224.97;;;14.02;100.00
43436;BME280;36399;51.444;-2.018;2023-10-31T10:08:05;99201.81;;;14.56;100.00
43436;BME280;36399;51.444;-2.018;2023-10-31T10:10:30;99183.47;;;15.54;100.00
43436;BME280;36399;51.444;-2.018;2023-10-31T10:12:57;99170.00;;;15.64;100.00
43436;BME280;36399;51.444;-2.018;2023-10-31T10:15:24;99153.28;;;15.30;100.00
43436;BME280;36399;51.444;-2.018;2023-10-31T10:17:51;99144.66;;;15.87;100.00
43436;BME280;36399;51.444;-2.018;2023-10-31T10:20:18;99139.34;;;15.87;100.00
43436;BME280;36399;51.444;-2.018;2023-10-31T10:22:45;99136.81;;;15.51;100.00
43436;BME280;36399;51.444;-2.018;2023-10-31T10:25:16;99146.44;;;15.54;100.00
43436;BME280;36399;51.444;-2.018;2023-10-31T10:27:43;99152.78;;;15.81;100.00
43436;BME280;36399;51.444;-2.018;2023-10-31T10:30:10;99152.09;;;15.41;100.00
43436;BME280;36399;51.444;-2.018;2023-10-31T10:32:36;99158.53;;;15.95;100.00
43436;BME280;36399;51.444;-2.018;2023-10-31T10:35:03;99159.50;;;15.61;100.00
43436;BME280;36399;51.444;-2.018;2023-10-31T10:37:29;99161.22;;;15.30;100.00
43436;BME280;36399;51.444;-2.018;2023-10-31T10:39:56;99161.09;;;15.34;100.00
43436;BME280;36399;51.444;-2.018;2023-10-31T10:42:31;99168.06;;;15.71;100.00
43436;BME280;36399;51.444;-2.018;2023-10-31T10:45:03;99163.00;;;16.50;100.00
43436;BME280;36399;51.444;-2.018;2023-10-31T10:47:34;99148.38;;;17.92;100.00
43436;BME280;36399;51.444;-2.018;2023-10-31T10:50:00;99150.84;;;17.24;100.00
43436;BME280;36399;51.444;-2.018;2023-10-31T10:52:41;99147.84;;;17.08;100.00
43436;BME280;36399;51.444;-2.018;2023-10-31T10:55:13;99149.00;;;17.26;100.00
43436;BME280;36399;51.444;-2.018;2023-10-31T10:58:03;99142.41;;;18.09;100.00
43436;BME280;36399;51.444;-2.018;2023-10-31T11:00:31;99135.00;;;18.17;100.00
43436;BME280;36399;51.444;-2.018;2023-10-31T11:02:57;99147.03;;;18.27;100.00
43436;BME280;36399;51.444;-2.018;2023-10-31T11:05:24;99137.25;;;18.72;100.00
43436;BME280;36399;51.444;-2.018;2023-10-31T11:07:51;99145.41;;;18.00;100.00
43436;BME280;36399;51.444;-2.018;2023-10-31T11:10:18;99146.28;;;18.01;100.00
43436;BME280;36399;51.444;-2.018;2023-10-31T11:12:44;99149.56;;;17.59;100.00
43436;BME280;36399;51.444;-2.018;2023-10-31T11:15:14;99147.09;;;18.26;100.00
43436;BME280;36399;51.444;-2.018;2023-10-31T11:17:45;99154.69;;;19.41;100.00
43436;BME280;36399;51.444;-2.018;2023-10-31T11:20:14;99144.69;;;18.42;100.00
43436;BME280;36399;51.444;-2.018;2023-10-31T11:22:42;99149.66;;;17.32;100.00
43436;BME280;36399;51.444;-2.018;2023-10-31T11:25:13;99157.16;;;16.39;100.00
43436;BME280;36399;51.444;-2.018;2023-10-31T11:27:38;99160.25;;;16.53;100.00
43436;BME280;36399;51.444;-2.018;2023-10-31T11:30:08;99151.88;;;17.45;100.00
43436;BME280;36399;51.444;-2.018;2023-10-31T11:32:51;99145.84;;;17.89;100.00
43436;BME280;36399;51.444;-2.018;2023-10-31T11:35:17;99136.63;;;17.00;100.00
43436;BME280;36399;51.444;-2.018;2023-10-31T11:37:48;99137.28;;;17.56;100.00
43436;BME280;36399;51.444;-2.018;2023-10-31T11:40:16;99137.34;;;18.03;100.00
43436;BME280;36399;51.444;-2.018;2023-10-31T11:42:42;99139.34;;;17.48;100.00
43436;BME280;36399;51.444;-2.018;2023-10-31T11:45:08;99146.78;;;18.10;100.00
43436;BME280;36399;51.444;-2.018;2023-10-31T11:47:50;99144.31;;;17.57;100.00
43436;BME280;36399;51.444;-2.018;2023-10-31T11:50:17;99144.88;;;17.67;100.00
43436;BME280;36399;51.444;-2.018;2023-10-31T11:52:43;99153.44;;;17.25;100.00
43436;BME280;36399;51.444;-2.018;2023-10-31T11:55:10;99141.22;;;18.16;100.00
43436;BME280;36399;51.444;-2.018;2023-10-31T11:57:39;99136.38;;;18.49;100.00
43436;BME280;36399;51.444;-2.018;2023-10-31T12:00:06;99133.00;;;18.24;100.00
43436;BME280;36399;51.444;-2.018;2023-10-31T12:02:35;99137.13;;;17.11;100.00
43436;BME280;36399;51.444;-2.018;2023-10-31T12:05:12;99129.56;;;16.46;100.00
43436;BME280;36399;51.444;-2.018;2023-10-31T12:07:43;99127.22;;;17.16;100.00
43436;BME280;36399;51.444;-2.018;2023-10-31T12:10:09;99130.25;;;17.06;100.00
43436;BME280;36399;51.444;-2.018;2023-10-31T12:12:36;99142.72;;;16.77;100.00
43436;BME280;36399;51.444;-2.018;2023-10-31T12:15:08;99128.31;;;16.02;100.00
43436;BME280;36399;51.444;-2.018;2023-10-31T12:17:35;99149.28;;;14.81;100.00
43436;BME280;36399;51.444;-2.018;2023-10-31T12:20:08;99148.34;;;14.08;100.00
43436;BME280;36399;51.444;-2.018;2023-10-31T12:22:34;99167.00;;;13.99;100.00
43436;BME280;36399;51.444;-2.018;2023-10-31T12:25:05;99150.31;;;14.75;100.00
43436;BME280;36399;51.444;-2.018;2023-10-31T12:27:50;99162.63;;;16.34;100.00
43436;BME280;36399;51.444;-2.018;2023-10-31T12:30:21;99150.94;;;17.46;100.00
43436;BME280;36399;51.444;-2.018;2023-10-31T12:32:56;99150.72;;;18.23;100.00
43436;BME280;36399;51.444;-2.018;2023-10-31T12:35:24;99154.44;;;17.73;100.00
43436;BME280;36399;51.444;-2.018;2023-10-31T12:37:51;99152.81;;;17.92;100.00
43436;BME280;36399;51.444;-2.018;2023-10-31T12:40:19;99150.06;;;18.62;100.00
43436;BME280;36399;51.444;-2.018;2023-10-31T12:42:47;99158.03;;;18.40;100.00
43436;BME280;36399;51.444;-2.018;2023-10-31T12:45:14;99155.09;;;17.53;100.00
43436;BME280;36399;51.444;-2.018;2023-10-31T12:47:40;99164.69;;;16.53;100.00